Lamott, Pennsylvania
Current Conditions -  °F | °C
As of 3:54 AM on Friday 24 Oct 2014 (Local Time) from KPNE Reporting Station
Overcast Overcast  
Wind Chill: 55°   Ceiling: 2800
Heat Index: 55°   Visibility: 10mi
Dew Point: 43°   Wind: 7mph
Humidity: 64%   Direction: 320°NW
Pressure: 29.84"   Gusts: NA
Location:  40.0732°N, 75.1248°W
Report Text: KPNE 240754Z 32006KT 10SM BKN028 OVC055 13/06 A2984 RMK AO2 SLP105 T01280061 $
Loading
Personal Weather Stations






























Interactive Weather Map
Tropical Storm Tracking
New forecast layout! Learn more

10-Day Weather Forecast

Advertisements
Track Severe Weather on mobile